createdAt,value
2019-03-01T00:02:23.235Z,5.69
2019-03-01T00:05:23.863Z,5.41
2019-03-01T00:08:37.305Z,5.73
2019-03-01T00:11:25.329Z,5.63
2019-03-01T00:14:18.558Z,5.58
2019-03-01T00:17:22.544Z,5.11
2019-03-01T00:20:36.594Z,5.18
2019-03-01T00:23:29.132Z,5.10
2019-03-01T00:26:34.543Z,5.19
2019-03-01T00:29:45.867Z,4.97
2019-03-01T00:32:57.143Z,4.67
2019-03-01T00:36:08.684Z,4.57
2019-03-01T00:39:12.583Z,4.36
2019-03-01T00:41:57.606Z,4.63
2019-03-01T00:44:32.243Z,4.78
2019-03-01T00:47:02.793Z,4.77
2019-03-01T00:49:33.262Z,4.76
2019-03-01T00:52:03.617Z,4.57
2019-03-01T00:54:34.026Z,4.82
2019-03-01T00:57:04.576Z,4.90
2019-03-01T00:59:34.838Z,4.86
2019-03-01T01:02:05.972Z,4.88
2019-03-01T01:04:36.631Z,5.17
2019-03-01T01:07:06.964Z,5.02
2019-03-01T01:09:37.776Z,5.20
2019-03-01T01:12:08.478Z,5.25
2019-03-01T01:14:38.830Z,5.13
2019-03-01T01:17:09.916Z,5.20
2019-03-01T01:19:40.281Z,4.89
2019-03-01T01:22:10.666Z,4.81
2019-03-01T01:24:41.044Z,4.86
2019-03-01T01:27:11.828Z,4.89
2019-03-01T01:29:42.226Z,5.24
2019-03-01T01:32:12.895Z,5.25
2019-03-01T01:34:43.231Z,5.27
2019-03-01T01:37:13.848Z,5.28
2019-03-01T01:39:44.525Z,5.53
2019-03-01T01:42:15.129Z,5.69
2019-03-01T01:44:45.534Z,5.74
2019-03-01T01:47:16.286Z,5.61
2019-03-01T01:49:46.603Z,5.73
2019-03-01T01:52:16.881Z,5.63
2019-03-01T01:54:47.305Z,5.50
2019-03-01T01:57:17.624Z,5.57
2019-03-01T01:59:47.959Z,5.70
2019-03-01T02:02:18.637Z,5.70
2019-03-01T02:04:49.234Z,5.59
2019-03-01T02:07:21.116Z,5.80
2019-03-01T02:09:51.407Z,5.65
2019-03-01T02:12:21.711Z,5.66
2019-03-01T02:14:52.447Z,5.53
2019-03-01T02:17:22.877Z,5.67
2019-03-01T02:19:53.440Z,5.77
2019-03-01T02:22:23.955Z,5.72
2019-03-01T02:24:54.427Z,6.03
2019-03-01T02:27:29.857Z,5.90
2019-03-01T02:30:01.782Z,5.95
2019-03-01T02:32:36.147Z,6.31
2019-03-01T02:35:07.846Z,6.18
2019-03-01T02:37:38.128Z,5.91
2019-03-01T02:40:09.953Z,5.88
2019-03-01T02:42:40.668Z,6.52
2019-03-01T02:45:14.407Z,7.09
2019-03-01T02:47:44.679Z,8.23
2019-03-01T02:50:16.320Z,8.58
2019-03-01T02:52:47.084Z,9.27
2019-03-01T02:55:18.181Z,9.51
2019-03-01T02:57:49.136Z,10.03
2019-03-01T03:00:24.159Z,10.28
2019-03-01T03:02:54.491Z,10.54
2019-03-01T03:05:24.937Z,10.64
2019-03-01T03:07:57.488Z,11.09
2019-03-01T03:10:27.808Z,11.07
2019-03-01T03:13:00.729Z,11.18
2019-03-01T03:15:43.067Z,11.16
2019-03-01T03:18:13.659Z,11.34
2019-03-01T03:20:43.948Z,11.17
2019-03-01T03:23:14.652Z,11.35
2019-03-01T03:25:45.113Z,11.34
2019-03-01T03:28:15.416Z,11.38
2019-03-01T03:30:46.498Z,11.33
2019-03-01T03:33:17.239Z,11.41
2019-03-01T03:35:47.510Z,11.44
2019-03-01T03:38:18.405Z,11.33
2019-03-01T03:40:48.666Z,11.38
2019-03-01T03:43:19.367Z,11.32
2019-03-01T03:45:49.906Z,11.32
2019-03-01T03:48:20.199Z,11.36
2019-03-01T03:50:50.847Z,11.47
2019-03-01T03:53:22.359Z,11.32
2019-03-01T03:55:54.080Z,11.34
2019-03-01T03:58:24.795Z,11.27
2019-03-01T04:00:55.765Z,11.23
2019-03-01T04:03:26.036Z,11.24
2019-03-01T04:05:56.393Z,11.36
2019-03-01T04:08:27.039Z,11.12
2019-03-01T04:10:57.339Z,11.38
2019-03-01T04:13:27.849Z,11.14
2019-03-01T04:15:59.548Z,10.52
2019-03-01T04:18:30.262Z,10.55
2019-03-01T04:21:01.624Z,10.63
2019-03-01T04:23:32.221Z,10.75
2019-03-01T04:26:02.623Z,10.76
2019-03-01T04:28:33.293Z,10.94
2019-03-01T04:31:04.634Z,10.79
2019-03-01T04:33:34.928Z,10.87
2019-03-01T04:36:05.741Z,10.68
2019-03-01T04:38:36.018Z,10.31
2019-03-01T04:41:06.360Z,9.98
2019-03-01T04:43:38.359Z,9.57
2019-03-01T04:46:08.889Z,9.21
2019-03-01T04:48:39.604Z,8.94
2019-03-01T04:51:10.638Z,8.73
2019-03-01T04:53:41.009Z,8.57
2019-03-01T04:56:11.429Z,8.32
2019-03-01T04:58:41.717Z,8.18
2019-03-01T05:01:12.323Z,8.07
2019-03-01T05:03:42.986Z,8.00
2019-03-01T05:06:13.497Z,7.80
2019-03-01T05:08:43.957Z,7.87
2019-03-01T05:11:14.776Z,7.92
2019-03-01T05:13:45.405Z,7.97
2019-03-01T05:16:15.675Z,8.04
2019-03-01T05:18:46.201Z,8.18
2019-03-01T05:21:16.996Z,8.40
2019-03-01T05:23:47.350Z,8.46
2019-03-01T05:26:17.690Z,8.79
2019-03-01T05:28:48.405Z,8.93
2019-03-01T05:31:18.688Z,7.31
2019-03-01T05:33:49.417Z,9.39
2019-03-01T05:36:19.957Z,9.63
2019-03-01T05:38:50.313Z,9.67
2019-03-01T05:41:20.697Z,9.80
2019-03-01T05:43:51.393Z,9.99
2019-03-01T05:46:21.847Z,10.10
2019-03-01T05:48:52.540Z,10.12
2019-03-01T05:51:22.851Z,10.39
2019-03-01T05:53:53.208Z,10.36
2019-03-01T05:56:23.828Z,10.53
2019-03-01T05:59:15.356Z,10.73
2019-03-01T06:02:19.331Z,10.78
2019-03-01T06:04:53.378Z,10.77
2019-03-01T06:08:07.588Z,10.83
2019-03-01T06:11:23.683Z,11.00
2019-03-01T06:14:37.887Z,11.00
2019-03-01T06:17:40.285Z,11.12
2019-03-01T06:20:17.225Z,11.01
2019-03-01T06:23:21.948Z,11.13
2019-03-01T06:26:25.727Z,11.13
2019-03-01T06:29:23.849Z,11.20
2019-03-01T06:32:27.151Z,11.16
2019-03-01T06:35:47.047Z,11.42
2019-03-01T06:39:34.782Z,11.41
2019-03-01T06:42:34.097Z,11.59
2019-03-01T06:45:33.852Z,11.62
2019-03-01T06:48:04.636Z,11.73
2019-03-01T06:50:46.141Z,11.74
2019-03-01T06:53:16.478Z,11.90
2019-03-01T06:56:01.230Z,11.91
2019-03-01T06:58:34.753Z,11.94
2019-03-01T07:01:11.882Z,11.78
2019-03-01T07:03:42.604Z,12.05
2019-03-01T07:06:13.010Z,12.32
2019-03-01T07:08:43.586Z,12.07
2019-03-01T07:11:14.189Z,12.23
2019-03-01T07:13:44.476Z,12.38
2019-03-01T07:16:16.328Z,12.48
2019-03-01T07:18:47.027Z,12.20
2019-03-01T07:21:17.605Z,12.11
2019-03-01T07:23:47.979Z,12.43
2019-03-01T07:26:18.633Z,12.25
2019-03-01T07:28:48.934Z,12.31
2019-03-01T07:31:19.290Z,12.42
2019-03-01T07:33:49.739Z,12.53
2019-03-01T07:36:20.572Z,12.78
2019-03-01T07:38:51.015Z,12.71
2019-03-01T07:41:21.366Z,12.93
2019-03-01T07:43:52.084Z,12.91
2019-03-01T07:46:22.749Z,12.78
2019-03-01T07:48:53.064Z,12.89
2019-03-01T07:51:23.377Z,13.27
2019-03-01T07:53:54.021Z,12.87
2019-03-01T07:56:24.409Z,13.04
2019-03-01T07:58:57.550Z,12.64
2019-03-01T08:01:29.158Z,12.78
2019-03-01T08:03:59.595Z,12.70
2019-03-01T08:06:30.367Z,12.62
2019-03-01T08:09:00.640Z,12.79
2019-03-01T08:11:32.596Z,12.48
2019-03-01T08:14:03.181Z,12.65
2019-03-01T08:16:33.561Z,12.80
2019-03-01T08:19:04.560Z,12.70
2019-03-01T08:21:35.391Z,12.74
2019-03-01T08:24:07.670Z,12.71
2019-03-01T08:26:37.927Z,12.86
2019-03-01T08:29:08.637Z,12.83
2019-03-01T08:31:39.350Z,12.85
2019-03-01T08:34:09.763Z,12.82
2019-03-01T08:36:42.396Z,12.82
2019-03-01T08:39:12.379Z,13.01
2019-03-01T08:41:42.787Z,13.13
2019-03-01T08:44:13.134Z,13.29
2019-03-01T08:46:45.625Z,13.32
2019-03-01T08:49:16.221Z,13.41
2019-03-01T08:51:46.951Z,13.58
2019-03-01T08:54:17.342Z,13.28
2019-03-01T08:56:50.192Z,13.29
2019-03-01T08:59:20.600Z,13.26
2019-03-01T09:01:50.968Z,13.08
2019-03-01T09:04:21.715Z,13.29
2019-03-01T09:06:53.458Z,13.34
2019-03-01T09:09:24.990Z,13.32
2019-03-01T09:11:55.834Z,13.26
2019-03-01T09:14:27.287Z,13.41
2019-03-01T09:16:58.076Z,13.25
2019-03-01T09:19:28.406Z,13.36
2019-03-01T09:21:58.741Z,13.58
2019-03-01T09:24:30.037Z,13.68
2019-03-01T09:27:00.883Z,13.62
2019-03-01T09:29:41.031Z,13.70
2019-03-01T09:32:03.342Z,13.91
2019-03-01T09:34:33.814Z,13.73
2019-03-01T09:37:04.363Z,13.72
2019-03-01T09:39:34.764Z,13.71
2019-03-01T09:42:06.458Z,13.94
2019-03-01T09:44:39.252Z,13.90
2019-03-01T09:47:09.948Z,14.22
2019-03-01T09:49:40.393Z,13.57
2019-03-01T09:52:10.824Z,13.99
2019-03-01T09:54:41.103Z,13.97
2019-03-01T09:57:12.467Z,14.57
2019-03-01T09:59:44.486Z,14.67
2019-03-01T10:02:14.814Z,14.51
2019-03-01T10:04:45.172Z,14.60
2019-03-01T10:07:15.967Z,14.66
2019-03-01T10:09:46.540Z,14.71
2019-03-01T10:12:16.890Z,14.96
2019-03-01T10:14:47.473Z,14.70
2019-03-01T10:17:18.325Z,14.78
2019-03-01T10:19:48.745Z,14.38
2019-03-01T10:22:19.073Z,14.59
2019-03-01T10:24:49.478Z,14.86
2019-03-01T10:27:20.137Z,14.81
2019-03-01T10:29:50.498Z,14.72
2019-03-01T10:32:21.969Z,15.08
2019-03-01T10:34:52.727Z,14.88
2019-03-01T10:37:23.078Z,15.06
2019-03-01T10:39:55.582Z,15.68
2019-03-01T10:42:25.909Z,15.31
2019-03-01T10:44:56.550Z,15.30
2019-03-01T10:47:27.365Z,15.15
2019-03-01T10:49:57.671Z,15.63
2019-03-01T10:52:28.076Z,15.52
2019-03-01T10:54:58.815Z,15.66
2019-03-01T10:57:29.162Z,15.50
2019-03-01T10:59:59.466Z,15.29
2019-03-01T11:02:30.135Z,15.41
2019-03-01T11:05:00.631Z,15.47
2019-03-01T11:07:30.978Z,15.93
2019-03-01T11:10:01.584Z,15.49
2019-03-01T11:12:32.306Z,15.50
2019-03-01T11:15:02.602Z,15.82
2019-03-01T11:17:33.373Z,15.78
2019-03-01T11:20:03.872Z,15.84
2019-03-01T11:22:34.741Z,16.06
2019-03-01T11:25:05.903Z,15.95
2019-03-01T11:27:36.365Z,16.14
2019-03-01T11:30:07.755Z,16.40
2019-03-01T11:32:38.245Z,16.40
2019-03-01T11:35:08.885Z,16.35
2019-03-01T11:37:39.658Z,16.38
2019-03-01T11:40:12.899Z,15.98
2019-03-01T11:42:43.522Z,16.05
2019-03-01T11:45:14.135Z,15.81
2019-03-01T11:47:45.132Z,15.37
2019-03-01T11:50:17.979Z,15.58
2019-03-01T11:52:48.955Z,16.19
2019-03-01T11:55:19.265Z,16.28
2019-03-01T11:57:50.346Z,15.97
2019-03-01T12:00:21.512Z,16.23
2019-03-01T12:02:52.077Z,16.36
2019-03-01T12:05:22.727Z,16.23
2019-03-01T12:07:53.377Z,16.52
2019-03-01T12:10:25.859Z,16.65
2019-03-01T12:12:56.176Z,16.23
2019-03-01T12:15:26.924Z,16.49
2019-03-01T12:17:57.236Z,16.49
2019-03-01T12:20:27.916Z,16.16
2019-03-01T12:22:58.626Z,16.41
2019-03-01T12:25:29.111Z,16.01
2019-03-01T12:28:00.098Z,15.90
2019-03-01T12:30:30.399Z,16.11
2019-03-01T12:33:00.703Z,16.13
2019-03-01T12:35:31.470Z,15.92
2019-03-01T12:38:01.755Z,16.07
2019-03-01T12:40:32.049Z,15.94
2019-03-01T12:43:02.647Z,15.81
2019-03-01T12:45:33.190Z,16.51
2019-03-01T12:48:03.561Z,16.21
2019-03-01T12:50:34.435Z,16.23
2019-03-01T12:53:05.153Z,16.59
2019-03-01T12:55:35.632Z,16.26
2019-03-01T12:58:05.998Z,16.35
2019-03-01T13:00:36.419Z,16.82
2019-03-01T13:03:08.981Z,16.58
2019-03-01T13:05:39.740Z,16.66
2019-03-01T13:08:12.582Z,16.93
2019-03-01T13:10:42.468Z,16.97
2019-03-01T13:13:13.281Z,16.35
2019-03-01T13:15:45.379Z,16.52
2019-03-01T13:18:16.936Z,16.79
2019-03-01T13:20:48.068Z,17.26
2019-03-01T13:23:18.356Z,17.26
2019-03-01T13:25:48.822Z,17.47
2019-03-01T13:28:19.184Z,17.14
2019-03-01T13:30:50.054Z,17.11
2019-03-01T13:33:21.193Z,17.53
2019-03-01T13:35:51.780Z,17.42
2019-03-01T13:38:22.168Z,17.27
2019-03-01T13:40:54.246Z,17.59
2019-03-01T13:43:27.359Z,17.03
2019-03-01T13:45:58.070Z,17.09
2019-03-01T13:48:29.134Z,16.94
2019-03-01T13:50:59.486Z,17.72
2019-03-01T13:53:30.240Z,17.72
2019-03-01T13:56:02.116Z,17.53
2019-03-01T13:58:32.588Z,17.46
2019-03-01T14:01:02.868Z,17.59
2019-03-01T14:03:33.747Z,17.59
2019-03-01T14:06:04.087Z,16.64
2019-03-01T14:08:34.396Z,16.67
2019-03-01T14:11:04.805Z,16.67
2019-03-01T14:13:35.950Z,16.85
2019-03-01T14:16:06.262Z,17.04
2019-03-01T14:18:37.871Z,17.43
2019-03-01T14:21:08.459Z,16.81
2019-03-01T14:23:38.905Z,17.27
2019-03-01T14:26:09.652Z,17.27
2019-03-01T14:28:41.159Z,17.42
2019-03-01T14:31:12.357Z,17.46
2019-03-01T14:33:44.072Z,17.44
2019-03-01T14:36:14.351Z,17.44
2019-03-01T14:38:44.821Z,17.35
2019-03-01T14:41:15.356Z,17.06
2019-03-01T14:43:45.746Z,16.72
2019-03-01T14:46:17.591Z,16.74
2019-03-01T14:48:48.674Z,16.84
2019-03-01T14:51:19.009Z,17.21
2019-03-01T14:53:49.382Z,16.71
2019-03-01T14:56:24.071Z,17.08
2019-03-01T14:59:01.724Z,16.52
2019-03-01T15:02:24.776Z,17.02
2019-03-01T15:04:55.568Z,16.42
2019-03-01T15:07:27.876Z,16.42
2019-03-01T15:09:58.329Z,16.38
2019-03-01T15:12:28.661Z,16.34
2019-03-01T15:14:59.210Z,16.23
2019-03-01T15:17:29.913Z,16.13
2019-03-01T15:20:00.355Z,16.13
2019-03-01T15:22:30.837Z,16.11
2019-03-01T15:25:01.479Z,15.92
2019-03-01T15:27:33.030Z,16.15
2019-03-01T15:30:05.709Z,15.92
2019-03-01T15:32:36.231Z,15.92
2019-03-01T15:35:06.971Z,16.12
2019-03-01T15:37:37.314Z,15.74
2019-03-01T15:40:08.068Z,15.91
2019-03-01T15:42:38.455Z,15.64
2019-03-01T15:45:10.018Z,15.45
2019-03-01T15:47:40.533Z,15.56
2019-03-01T15:50:11.239Z,15.37
2019-03-01T15:52:41.870Z,15.06
2019-03-01T15:55:12.885Z,15.14
2019-03-01T15:57:43.396Z,15.06
2019-03-01T16:00:14.187Z,14.76
2019-03-01T16:02:44.732Z,14.81
2019-03-01T16:05:15.319Z,14.80
2019-03-01T16:07:45.647Z,14.56
2019-03-01T16:10:16.241Z,14.66
2019-03-01T16:12:47.003Z,14.62
2019-03-01T16:15:17.828Z,14.47
2019-03-01T16:17:48.138Z,14.28
2019-03-01T16:20:19.031Z,14.29
2019-03-01T16:22:51.012Z,13.88
2019-03-01T16:25:21.639Z,13.73
2019-03-01T16:27:54.275Z,13.74
2019-03-01T16:30:24.657Z,13.70
2019-03-01T16:32:55.037Z,13.53
2019-03-01T16:35:25.327Z,13.36
2019-03-01T16:37:57.916Z,13.44
2019-03-01T16:40:28.331Z,13.32
2019-03-01T16:42:59.038Z,12.92
2019-03-01T16:45:29.406Z,12.82
2019-03-01T16:48:00.911Z,13.01
2019-03-01T16:50:32.751Z,12.76
2019-03-01T16:53:04.601Z,13.03
2019-03-01T16:55:35.446Z,12.86
2019-03-01T16:58:07.246Z,12.53
2019-03-01T17:00:37.811Z,12.21
2019-03-01T17:03:08.545Z,12.11
2019-03-01T17:05:40.235Z,12.15
2019-03-01T17:08:10.870Z,12.06
2019-03-01T17:10:41.547Z,12.14
2019-03-01T17:13:12.226Z,12.18
2019-03-01T17:15:45.607Z,12.00
2019-03-01T17:18:15.268Z,12.30
2019-03-01T17:20:45.848Z,12.13
2019-03-01T17:23:16.200Z,12.12
2019-03-01T17:25:47.677Z,11.78
2019-03-01T17:28:22.705Z,11.25
2019-03-01T17:30:50.562Z,11.05
2019-03-01T17:33:22.412Z,10.78
2019-03-01T17:35:52.992Z,10.55
2019-03-01T17:38:23.306Z,10.69
2019-03-01T17:40:54.057Z,10.61
2019-03-01T17:43:25.974Z,10.35
2019-03-01T17:45:57.940Z,10.47
2019-03-01T17:48:29.610Z,10.37
2019-03-01T17:50:59.915Z,10.14
2019-03-01T17:53:30.296Z,10.00
2019-03-01T17:56:00.984Z,10.24
2019-03-01T17:58:31.292Z,10.09
2019-03-01T18:01:02.950Z,10.03
2019-03-01T18:03:35.319Z,9.98
2019-03-01T18:06:05.666Z,9.56
2019-03-01T18:08:39.681Z,9.33
2019-03-01T18:11:09.555Z,9.31
2019-03-01T18:13:40.928Z,9.37
2019-03-01T18:16:11.202Z,9.24
2019-03-01T18:18:42.565Z,9.23
2019-03-01T18:21:13.916Z,9.09
2019-03-01T18:23:44.305Z,9.04
2019-03-01T18:26:14.757Z,8.93
2019-03-01T18:28:45.276Z,8.89
2019-03-01T18:31:15.649Z,8.92
2019-03-01T18:33:46.328Z,8.87
2019-03-01T18:36:16.976Z,8.82
2019-03-01T18:38:47.251Z,8.78
2019-03-01T18:41:17.944Z,8.78
2019-03-01T18:43:49.336Z,8.74
2019-03-01T18:46:20.653Z,8.68
2019-03-01T18:48:51.220Z,8.61
2019-03-01T18:51:21.670Z,8.51
2019-03-01T18:53:52.280Z,8.50
2019-03-01T18:56:25.008Z,8.38
2019-03-01T18:58:54.671Z,8.36
2019-03-01T19:01:26.919Z,8.30
2019-03-01T19:03:59.019Z,8.32
2019-03-01T19:06:29.458Z,8.35
2019-03-01T19:09:00.090Z,8.30
2019-03-01T19:11:34.731Z,8.28
2019-03-01T19:14:03.741Z,8.27
2019-03-01T19:16:34.034Z,8.27
2019-03-01T19:19:06.045Z,8.36
2019-03-01T19:21:36.809Z,8.38
2019-03-01T19:24:08.216Z,8.39
2019-03-01T19:26:40.035Z,8.42
2019-03-01T19:29:10.727Z,8.49
2019-03-01T19:31:41.448Z,8.52
2019-03-01T19:34:13.107Z,8.67
2019-03-01T19:36:43.762Z,8.76
2019-03-01T19:39:22.675Z,8.78
2019-03-01T19:41:54.568Z,8.81
2019-03-01T19:44:25.743Z,8.92
2019-03-01T19:46:57.539Z,8.78
2019-03-01T19:49:28.145Z,8.65
2019-03-01T19:51:58.444Z,8.62
2019-03-01T19:54:28.803Z,8.65
2019-03-01T19:57:01.514Z,8.57
2019-03-01T19:59:31.546Z,8.44
2019-03-01T20:02:02.064Z,8.34
2019-03-01T20:04:32.441Z,8.27
2019-03-01T20:07:02.934Z,8.23
2019-03-01T20:09:36.562Z,8.14
2019-03-01T20:12:05.887Z,8.03
2019-03-01T20:14:36.374Z,7.88
2019-03-01T20:17:06.942Z,7.82
2019-03-01T20:19:38.177Z,7.76
2019-03-01T20:22:10.442Z,7.77
2019-03-01T20:24:41.275Z,7.78
2019-03-01T20:27:11.596Z,7.83
2019-03-01T20:29:42.162Z,7.89
2019-03-01T20:32:15.475Z,7.92
2019-03-01T20:34:44.812Z,7.94
2019-03-01T20:37:15.733Z,7.93
2019-03-01T20:39:47.442Z,7.92
2019-03-01T20:42:23.586Z,7.89
2019-03-01T20:44:53.088Z,7.82
2019-03-01T20:47:23.066Z,7.77
2019-03-01T20:49:54.507Z,7.70
2019-03-01T20:52:25.230Z,7.63
2019-03-01T20:54:57.737Z,7.59
2019-03-01T20:57:28.318Z,7.60
2019-03-01T20:59:59.003Z,7.57
2019-03-01T21:02:29.923Z,7.54
2019-03-01T21:05:00.697Z,7.54
2019-03-01T21:07:31.056Z,7.53
2019-03-01T21:10:01.736Z,7.48
2019-03-01T21:12:33.503Z,7.54
2019-03-01T21:15:04.315Z,7.54
2019-03-01T21:17:34.727Z,7.60
2019-03-01T21:20:06.694Z,7.62
2019-03-01T21:22:39.803Z,7.65
2019-03-01T21:25:10.247Z,7.67
2019-03-01T21:27:40.876Z,7.64
2019-03-01T21:30:13.827Z,7.66
2019-03-01T21:32:47.042Z,7.72
2019-03-01T21:35:16.832Z,7.58
2019-03-01T21:37:47.230Z,7.48
2019-03-01T21:40:17.937Z,7.46
2019-03-01T21:42:48.282Z,7.51
2019-03-01T21:45:21.507Z,7.44
2019-03-01T21:47:51.793Z,7.36
2019-03-01T21:50:22.179Z,7.34
2019-03-01T21:52:52.454Z,7.87
2019-03-01T21:55:24.985Z,7.89
2019-03-01T21:57:56.006Z,7.95
2019-03-01T22:00:29.561Z,7.84
2019-03-01T22:02:58.620Z,7.41
2019-03-01T22:05:28.938Z,7.34
2019-03-01T22:07:59.687Z,7.28
2019-03-01T22:10:31.610Z,7.17
2019-03-01T22:13:02.218Z,7.07
2019-03-01T22:15:32.848Z,7.01
2019-03-01T22:18:03.223Z,6.98
2019-03-01T22:20:33.537Z,6.94
2019-03-01T22:23:03.920Z,6.90
2019-03-01T22:25:34.616Z,6.91
2019-03-01T22:28:06.468Z,6.85
2019-03-01T22:30:37.282Z,6.87
2019-03-01T22:33:07.955Z,6.91
2019-03-01T22:35:40.548Z,6.88
2019-03-01T22:38:10.532Z,6.80
2019-03-01T22:40:41.076Z,6.78
2019-03-01T22:43:11.479Z,6.80
2019-03-01T22:45:41.789Z,6.74
2019-03-01T22:48:12.504Z,6.70
2019-03-01T22:50:43.491Z,6.65
2019-03-01T22:53:13.807Z,6.63
2019-03-01T22:55:44.493Z,6.63
2019-03-01T22:58:14.873Z,6.64
2019-03-01T23:01:23.806Z,6.75
2019-03-01T23:04:00.198Z,6.62
2019-03-01T23:06:30.864Z,6.64
2019-03-01T23:09:01.184Z,6.67
2019-03-01T23:11:33.677Z,6.76
2019-03-01T23:14:04.030Z,6.62
2019-03-01T23:16:34.608Z,6.65
2019-03-01T23:19:05.273Z,6.70
2019-03-01T23:21:36.813Z,6.59
2019-03-01T23:24:07.498Z,6.56
2019-03-01T23:26:38.403Z,6.50
2019-03-01T23:29:08.844Z,6.43
2019-03-01T23:31:39.747Z,6.33
2019-03-01T23:34:11.550Z,6.34
2019-03-01T23:36:41.868Z,6.29
2019-03-01T23:39:12.370Z,6.35
2019-03-01T23:41:46.320Z,6.34
2019-03-01T23:44:17.059Z,6.29
2019-03-01T23:46:47.687Z,6.31
2019-03-01T23:49:20.648Z,6.28
2019-03-01T23:51:50.184Z,6.33
2019-03-01T23:54:20.720Z,6.40
2019-03-01T23:56:51.152Z,6.43
2019-03-01T23:59:23.763Z,6.42
